Time;durP1;ratioP1;P1;durP2;ratioP2;P2;SDS_P1;SDS_P2;PMS_P1;PMS_P2;Temp;Humidity;BMP_temperature;BMP_pressure;BME280_temperature;BME280_humidity;BME280_pressure;Samples;Min_cycle;Max_cycle;Signal;HPM_P1;HPM_P2
2023/06/05 00:02:13;;;;;;;8.55;4.13;;;;;;;12.27;85.36;102226.13;4880694;29;20534;-77
2023/06/05 00:04:39;;;;;;;8.10;4.03;;;;;;;12.19;85.20;102219.63;4880092;29;20025;-77
2023/06/05 00:07:05;;;;;;;7.13;4.20;;;;;;;12.25;85.45;102227.13;4879602;29;20029;-77
2023/06/05 00:09:30;;;;;;;6.65;3.53;;;;;;;12.22;85.69;102232.47;4879208;29;20386;-76
2023/06/05 00:11:55;;;;;;;8.65;3.80;;;;;;;12.15;86.02;102236.25;4880447;29;20072;-77
2023/06/05 00:14:21;;;;;;;7.82;4.53;;;;;;;12.09;86.15;102232.19;4880284;29;20041;-77
2023/06/05 00:16:46;;;;;;;9.00;4.40;;;;;;;12.10;86.30;102230.47;4880282;29;20021;-77
2023/06/05 00:19:12;;;;;;;7.72;3.92;;;;;;;11.99;86.69;102230.94;4880502;29;20040;-78
2023/06/05 00:21:37;;;;;;;6.63;3.65;;;;;;;11.80;86.96;102199.03;4878586;29;20036;-81
2023/06/05 00:24:03;;;;;;;8.68;4.47;;;;;;;11.93;87.09;102220.88;4880079;29;20049;-77
2023/06/05 00:26:28;;;;;;;6.40;4.15;;;;;;;11.90;87.25;102232.22;4880313;29;20116;-77
2023/06/05 00:28:53;;;;;;;9.00;4.00;;;;;;;11.74;88.14;102213.94;4878786;29;20360;-76
2023/06/05 00:31:21;;;;;;;7.95;4.00;;;;;;;11.83;88.02;102220.47;4878514;29;20044;-77
2023/06/05 00:33:47;;;;;;;7.28;4.43;;;;;;;11.75;88.29;102220.78;4879978;29;20025;-79
2023/06/05 00:36:12;;;;;;;7.85;4.07;;;;;;;11.58;88.56;102205.16;4879806;29;20029;-77
2023/06/05 00:38:38;;;;;;;7.55;3.90;;;;;;;11.72;88.69;102228.69;4879662;29;20375;-77
2023/06/05 00:41:03;;;;;;;9.10;4.25;;;;;;;11.69;88.61;102221.03;4879835;29;20053;-78
2023/06/05 00:43:28;;;;;;;8.20;4.47;;;;;;;11.67;88.83;102216.84;4879635;29;20029;-77
2023/06/05 00:46:02;;;;;;;7.38;4.20;;;;;;;11.68;89.19;102232.31;4879963;29;20033;-77
2023/06/05 00:48:28;;;;;;;9.93;4.80;;;;;;;11.63;89.49;102233.44;4879813;29;20029;-76
2023/06/05 00:50:53;;;;;;;6.50;4.05;;;;;;;11.57;89.66;102226.78;4879550;29;20041;-77
2023/06/05 00:53:20;;;;;;;8.60;4.68;;;;;;;11.48;90.21;102224.59;4879510;29;20067;-77
2023/06/05 00:55:46;;;;;;;8.27;4.20;;;;;;;11.53;90.03;102230.44;4879527;29;20040;-77
2023/06/05 00:58:11;;;;;;;8.18;4.80;;;;;;;11.43;90.36;102216.22;4879562;29;20029;-77
2023/06/05 01:00:37;;;;;;;7.30;4.35;;;;;;;11.46;90.63;102229.84;4879621;29;20040;-77
2023/06/05 01:03:02;;;;;;;9.45;4.93;;;;;;;11.34;90.90;102214.03;4878257;29;20093;-77
2023/06/05 01:05:28;;;;;;;9.77;5.30;;;;;;;11.21;91.12;102195.66;4879365;29;20029;-76
2023/06/05 01:07:54;;;;;;;8.98;5.00;;;;;;;11.37;91.47;102232.84;4879329;29;20033;-77
2023/06/05 01:10:19;;;;;;;9.27;5.20;;;;;;;11.28;91.81;102222.88;4879399;29;20106;-77
2023/06/05 01:13:00;;;;;;;9.90;5.15;;;;;;;11.25;91.59;102227.38;4879551;29;20434;-76
2023/06/05 01:15:28;;;;;;;9.90;4.97;;;;;;;11.02;92.15;102195.59;4879481;29;20037;-77
2023/06/05 01:17:56;;;;;;;9.63;5.40;;;;;;;11.06;92.59;102204.06;4879156;29;20035;-76
2023/06/05 01:20:22;;;;;;;9.75;5.55;;;;;;;11.14;92.39;102215.75;4879055;29;20032;-77
2023/06/05 01:22:51;;;;;;;10.38;5.90;;;;;;;11.14;92.82;102217.50;4879117;29;20385;-78
2023/06/05 01:25:18;;;;;;;9.40;5.38;;;;;;;11.04;92.90;102206.72;4878830;29;20060;-76
2023/06/05 01:27:43;;;;;;;9.40;5.57;;;;;;;11.09;92.95;102222.84;4877682;29;20037;-77
2023/06/05 01:30:32;;;;;;;11.00;5.45;;;;;;;11.00;92.87;102218.06;4879039;29;20044;-78
2023/06/05 01:33:08;;;;;;;9.20;5.93;;;;;;;10.85;93.80;102190.31;4878986;29;20057;-77
2023/06/05 01:35:35;;;;;;;9.35;5.47;;;;;;;10.97;93.91;102223.38;4878832;29;20037;-76
2023/06/05 01:38:05;;;;;;;9.23;5.65;;;;;;;10.78;94.29;102188.88;4862522;29;20563;-76
2023/06/05 01:40:33;;;;;;;8.20;5.55;;;;;;;10.86;94.23;102204.91;4879059;29;20037;-77
2023/06/05 01:43:00;;;;;;;9.20;5.68;;;;;;;10.85;94.87;102219.56;4879017;29;20029;-76
2023/06/05 01:45:26;;;;;;;16.77;6.10;;;;;;;10.85;94.58;102227.31;4878880;29;20028;-76
2023/06/05 01:47:53;;;;;;;8.65;5.90;;;;;;;10.81;94.89;102222.31;4878962;29;20040;-77
2023/06/05 01:50:19;;;;;;;9.05;5.75;;;;;;;10.76;95.44;102214.78;4878640;29;20381;-76
2023/06/05 01:52:46;;;;;;;8.55;5.90;;;;;;;10.65;95.66;102200.63;4878881;29;20029;-78
2023/06/05 01:55:23;;;;;;;9.63;5.85;;;;;;;10.72;95.95;102208.06;4878715;29;20029;-77
2023/06/05 01:57:50;;;;;;;10.63;5.95;;;;;;;10.69;95.81;102208.19;4878906;29;20061;-78
2023/06/05 02:00:15;;;;;;;10.48;6.40;;;;;;;10.63;96.09;102205.88;4878494;29;20036;-76
2023/06/05 02:02:48;;;;;;;10.20;6.72;;;;;;;10.58;97.02;102200.88;4878968;29;20033;-79
2023/06/05 02:05:16;;;;;;;10.73;6.50;;;;;;;10.49;96.86;102188.34;4878500;29;20036;-80
2023/06/05 02:11:26;;;;;;;10.10;6.20;;;;;;;10.50;96.64;102194.34;4879158;29;20044;-80
2023/06/05 02:13:52;;;;;;;10.88;6.75;;;;;;;10.37;97.45;102177.66;4878867;29;20036;-77
2023/06/05 02:16:30;;;;;;;13.00;6.85;;;;;;;9.33;97.50;102020.03;4878668;29;20029;-81
2023/06/05 02:18:57;;;;;;;8.27;6.43;;;;;;;10.34;98.14;102182.06;4878926;29;20033;-80
2023/06/05 02:21:35;;;;;;;12.00;6.88;;;;;;;9.57;98.61;102066.41;4878239;29;20029;-80
2023/06/05 02:24:02;;;;;;;12.07;7.25;;;;;;;10.31;98.77;102197.66;4878685;29;20108;-81
2023/06/05 02:26:27;;;;;;;12.00;7.05;;;;;;;10.25;99.25;102192.75;4878661;29;20080;-80
2023/06/05 02:28:53;;;;;;;10.32;6.60;;;;;;;10.20;99.67;102193.78;4877504;29;20446;-80
2023/06/05 02:31:24;;;;;;;11.60;7.40;;;;;;;10.04;100.00;102172.91;4880854;29;20033;-80
2023/06/05 02:33:53;;;;;;;9.25;6.60;;;;;;;10.16;100.00;102195.66;4882269;29;20481;-80
2023/06/05 02:36:19;;;;;;;11.88;6.68;;;;;;;10.12;100.00;102194.09;4881823;29;20033;-79
2023/06/05 02:38:45;;;;;;;11.95;7.20;;;;;;;10.07;100.00;102186.53;4880929;29;20032;-80
2023/06/05 02:41:11;;;;;;;10.75;7.32;;;;;;;10.11;100.00;102197.56;4880491;29;20488;-80
2023/06/05 02:43:36;;;;;;;12.23;6.95;;;;;;;10.04;100.00;102189.25;4880801;29;20047;-79
2023/06/05 02:46:01;;;;;;;10.70;7.22;;;;;;;9.83;100.00;102153.94;4882064;29;20029;-80
2023/06/05 02:48:27;;;;;;;11.40;7.10;;;;;;;10.02;100.00;102195.34;4881832;29;20393;-81
2023/06/05 02:50:52;;;;;;;9.68;7.00;;;;;;;9.86;100.00;102165.88;4881836;29;20611;-82
2023/06/05 02:53:18;;;;;;;11.07;7.57;;;;;;;9.93;100.00;102181.09;4881720;29;20029;-81
2023/06/05 02:55:43;;;;;;;12.23;7.72;;;;;;;9.85;100.00;102162.47;4880403;29;20052;-79
2023/06/05 02:58:12;;;;;;;11.32;7.28;;;;;;;9.94;100.00;102180.19;4881717;29;20047;-80
2023/06/05 03:00:38;;;;;;;10.43;7.43;;;;;;;9.61;100.00;102135.03;4895355;29;20044;-80
2023/06/05 03:03:03;;;;;;;12.05;7.40;;;;;;;9.86;100.00;102169.31;4900233;29;20033;-79
2023/06/05 03:05:29;;;;;;;11.55;8.13;;;;;;;9.85;100.00;102179.69;4900108;29;20028;-80
2023/06/05 03:07:54;;;;;;;11.57;8.52;;;;;;;9.77;100.00;102185.13;4899853;29;20053;-81
2023/06/05 03:10:21;;;;;;;11.85;7.90;;;;;;;9.47;100.00;102140.72;4900153;29;20025;-80
2023/06/05 03:12:46;;;;;;;11.85;7.95;;;;;;;9.78;100.00;102189.41;4899022;29;20069;-81
2023/06/05 03:15:12;;;;;;;12.05;7.93;;;;;;;9.77;100.00;102190.31;4899991;29;20115;-79
2023/06/05 03:17:37;;;;;;;11.93;8.07;;;;;;;9.52;100.00;102145.69;4898529;29;20081;-81
2023/06/05 03:20:03;;;;;;;11.88;7.72;;;;;;;9.60;100.00;102161.72;4899859;29;20040;-80
2023/06/05 03:22:30;;;;;;;14.23;9.05;;;;;;;9.69;100.00;102174.25;4899921;29;20059;-81
2023/06/05 03:24:55;;;;;;;14.02;8.90;;;;;;;9.69;100.00;102182.00;4899973;29;20374;-81
2023/06/05 03:27:21;;;;;;;13.77;8.15;;;;;;;9.55;100.00;102158.47;4899790;29;20047;-81
2023/06/05 03:29:46;;;;;;;12.02;8.35;;;;;;;9.55;100.00;102158.47;4898747;29;20037;-81
2023/06/05 03:32:12;;;;;;;12.43;8.30;;;;;;;9.65;100.00;102173.56;4899687;29;20020;-79
2023/06/05 03:34:38;;;;;;;15.18;8.95;;;;;;;9.65;100.00;102165.81;4898538;29;20586;-80
2023/06/05 03:37:03;;;;;;;15.85;8.38;;;;;;;9.65;100.00;102162.41;4899353;29;20157;-80
2023/06/05 03:39:29;;;;;;;13.48;8.90;;;;;;;9.60;100.00;102166.88;4899636;29;20482;-80
2023/06/05 03:41:54;;;;;;;11.23;7.65;;;;;;;9.40;100.00;102134.94;4898540;29;20040;-80
2023/06/05 03:44:20;;;;;;;13.63;8.55;;;;;;;9.58;100.00;102166.94;4899523;29;20029;-80
2023/06/05 03:46:46;;;;;;;13.15;9.38;;;;;;;9.58;100.00;102163.50;4899762;29;20028;-80
2023/06/05 03:49:12;;;;;;;13.43;8.48;;;;;;;9.47;100.00;102141.56;4899436;29;20586;-80
2023/06/05 03:51:39;;;;;;;13.05;8.60;;;;;;;9.53;100.00;102155.94;4899397;29;20028;-80
2023/06/05 03:54:05;;;;;;;12.07;8.35;;;;;;;9.57;100.00;102161.84;4898396;29;20040;-78
2023/06/05 03:56:34;;;;;;;12.73;8.95;;;;;;;9.57;100.00;102154.94;4899332;29;20567;-81
2023/06/05 03:59:08;;;;;;;12.30;8.90;;;;;;;9.51;100.00;102141.44;4899417;29;20031;-81
2023/06/05 04:01:36;;;;;;;15.68;9.00;;;;;;;9.48;100.00;102150.97;4899186;29;20394;-80
2023/06/05 04:04:05;;;;;;;13.90;8.77;;;;;;;9.63;100.00;102174.47;4899252;29;20051;-81
2023/06/05 04:06:32;;;;;;;14.60;8.45;;;;;;;9.66;100.00;102164.91;4898994;29;20529;-81
2023/06/05 04:08:58;;;;;;;13.32;8.93;;;;;;;9.46;100.00;102123.56;4976211;23;20061;-80
2023/06/05 04:17:12;;;;;;;12.02;8.70;;;;;;;9.89;100.00;102169.19;5100290;23;20074;-80
2023/06/05 04:23:51;;;;;;;14.93;9.40;;;;;;;9.62;100.00;102100.59;4880427;29;20056;-81
2023/06/05 04:26:26;;;;;;;11.95;8.65;;;;;;;9.37;100.00;102047.41;4880254;29;20029;-77
2023/06/05 04:28:51;;;;;;;15.32;10.10;;;;;;;10.24;100.00;102170.44;4880137;29;20044;-77
2023/06/05 04:31:17;;;;;;;13.70;8.73;;;;;;;10.33;100.00;102182.13;4879092;29;20021;-80
2023/06/05 04:33:42;;;;;;;15.43;9.68;;;;;;;10.28;100.00;102147.88;4880018;29;20029;-80
2023/06/05 04:36:08;;;;;;;14.18;9.18;;;;;;;10.55;100.00;102177.75;4880007;29;20037;-78
2023/06/05 04:38:33;;;;;;;14.10;9.27;;;;;;;10.56;100.00;102179.44;4879751;29;20040;-80
2023/06/05 04:40:59;;;;;;;13.57;8.85;;;;;;;10.59;100.00;102181.88;4879631;29;20105;-81
2023/06/05 04:43:24;;;;;;;15.95;8.70;;;;;;;10.52;100.00;102164.09;4880143;29;20434;-78
2023/06/05 04:45:50;;;;;;;14.35;8.70;;;;;;;10.56;100.00;102181.19;4880104;29;20024;-81
2023/06/05 04:48:15;;;;;;;16.38;9.52;;;;;;;10.51;100.00;102178.78;4879815;29;20029;-80
2023/06/05 04:50:41;;;;;;;13.82;9.35;;;;;;;10.39;100.00;102162.94;4879824;29;20036;-80
2023/06/05 04:53:07;;;;;;;17.23;8.80;;;;;;;10.37;100.00;102162.19;4879482;29;20029;-80
2023/06/05 04:55:33;;;;;;;14.93;10.10;;;;;;;10.51;100.00;102186.50;4879675;29;20099;-77
2023/06/05 04:58:00;;;;;;;14.63;9.38;;;;;;;10.44;100.00;102163.63;4879776;29;20044;-75
2023/06/05 05:00:27;;;;;;;14.95;8.98;;;;;;;10.54;100.00;102167.50;4879410;29;20481;-79
2023/06/05 05:02:53;;;;;;;13.18;9.02;;;;;;;10.88;100.00;102185.81;4879757;29;20030;-78
2023/06/05 05:05:19;;;;;;;14.75;9.27;;;;;;;11.05;99.04;102161.00;4879532;29;20096;-77
2023/06/05 05:07:45;;;;;;;14.40;9.23;;;;;;;11.38;97.53;102192.28;4878640;29;20040;-77
2023/06/05 05:10:11;;;;;;;15.00;9.82;;;;;;;11.62;96.38;102190.38;4879280;29;20381;-79
2023/06/05 05:12:37;;;;;;;13.32;9.38;;;;;;;11.74;94.89;102187.22;4879745;29;20041;-78
2023/06/05 05:15:03;;;;;;;13.85;9.93;;;;;;;11.91;93.97;102183.88;4879435;29;20495;-78
2023/06/05 05:17:30;;;;;;;12.35;8.50;;;;;;;11.86;92.44;102137.50;4878094;29;20169;-78
2023/06/05 05:19:55;;;;;;;13.70;9.98;;;;;;;12.37;91.10;102168.72;4879158;29;20044;-76
2023/06/05 05:22:21;;;;;;;13.27;9.30;;;;;;;12.68;88.57;102162.84;4879142;29;20049;-79
2023/06/05 05:24:47;;;;;;;13.20;8.95;;;;;;;13.08;86.89;102166.84;4879182;29;20037;-79
2023/06/05 05:27:13;;;;;;;13.23;9.68;;;;;;;13.57;84.54;102159.91;4878081;29;20071;-79
2023/06/05 05:29:38;;;;;;;13.32;8.70;;;;;;;14.17;80.74;102159.19;4879196;29;20074;-81
2023/06/05 05:32:05;;;;;;;12.65;8.75;;;;;;;14.73;79.23;102173.28;4879291;29;20041;-78
2023/06/05 05:34:30;;;;;;;17.98;8.38;;;;;;;15.52;75.09;102178.00;4877739;29;20028;-77
2023/06/05 05:36:56;;;;;;;12.75;8.32;;;;;;;16.16;71.33;102168.75;4878889;29;20033;-79
2023/06/05 05:39:21;;;;;;;12.25;8.50;;;;;;;16.45;69.67;102131.16;4878945;29;20032;-80
2023/06/05 05:41:47;;;;;;;13.05;8.27;;;;;;;17.57;65.94;102170.44;4879177;29;20115;-77
2023/06/05 05:44:12;;;;;;;12.95;7.63;;;;;;;18.31;63.62;102180.72;4879092;29;20033;-78
2023/06/05 05:46:37;;;;;;;13.43;7.93;;;;;;;18.73;59.70;102177.63;4878685;29;20029;-80
2023/06/05 05:49:03;;;;;;;12.40;8.23;;;;;;;18.70;59.66;102183.09;4878970;29;20029;-81
2023/06/05 05:51:28;;;;;;;10.57;7.40;;;;;;;19.29;58.27;102175.03;4878683;29;20029;-79
2023/06/05 05:53:57;;;;;;;12.23;7.50;;;;;;;19.91;55.51;102191.03;4878922;29;20038;-79
2023/06/05 05:56:22;;;;;;;12.95;8.07;;;;;;;19.55;54.77;102152.00;4878863;29;20438;-79
2023/06/05 05:58:47;;;;;;;13.68;7.82;;;;;;;19.18;55.40;102187.19;4884326;29;20025;-77
2023/06/05 06:01:13;;;;;;;11.70;8.30;;;;;;;18.96;56.30;102179.31;4881147;29;20060;-79
2023/06/05 06:03:39;;;;;;;13.05;8.00;;;;;;;18.89;56.44;102181.59;4897514;29;20021;-78
2023/06/05 06:06:07;;;;;;;11.35;8.30;;;;;;;18.58;56.70;102193.53;4898353;29;20047;-77
2023/06/05 06:08:35;;;;;;;11.57;8.10;;;;;;;19.25;55.33;102190.13;4901559;29;20081;-78
2023/06/05 06:11:03;;;;;;;11.35;8.65;;;;;;;19.39;54.49;102195.16;4901174;29;20025;-79
2023/06/05 06:13:29;;;;;;;11.45;8.27;;;;;;;19.32;55.26;102195.75;4900149;29;20041;-78
2023/06/05 06:15:54;;;;;;;13.95;7.75;;;;;;;19.82;54.19;102198.78;4901245;29;20069;-77
2023/06/05 06:18:19;;;;;;;12.25;7.75;;;;;;;20.22;51.64;102181.47;4899832;29;20052;-81
2023/06/05 06:20:45;;;;;;;11.63;7.65;;;;;;;20.19;51.90;102201.88;4900727;29;20072;-77
2023/06/05 06:23:10;;;;;;;11.45;7.85;;;;;;;20.26;51.53;102201.28;4901082;29;20476;-81
2023/06/05 06:25:36;;;;;;;11.40;7.68;;;;;;;20.30;51.38;102178.22;4900952;29;20032;-78
2023/06/05 06:28:02;;;;;;;9.68;7.35;;;;;;;21.04;50.61;102186.84;4899392;29;20209;-80
2023/06/05 06:30:28;;;;;;;8.95;7.38;;;;;;;21.34;48.27;102183.41;4901020;29;20441;-79
2023/06/05 06:33:00;;;;;;;11.20;7.60;;;;;;;20.98;48.63;102200.50;4900840;29;20055;-79
2023/06/05 06:35:26;;;;;;;14.38;7.85;;;;;;;20.89;49.24;102127.75;4900556;29;20111;-77
2023/06/05 06:37:56;;;;;;;11.82;7.60;;;;;;;21.12;48.90;102188.81;4900536;29;20569;-77
2023/06/05 06:40:22;;;;;;;12.40;7.47;;;;;;;20.79;48.97;102163.66;4900705;29;20087;-80
2023/06/05 06:42:48;;;;;;;18.52;7.90;;;;;;;20.69;49.78;102183.75;4900586;29;20112;-80
2023/06/05 06:45:14;;;;;;;10.85;7.40;;;;;;;21.08;47.97;102195.28;4900739;29;20029;-78
2023/06/05 06:47:40;;;;;;;13.23;7.30;;;;;;;21.50;47.85;102200.44;4900365;29;20024;-78
2023/06/05 06:50:06;;;;;;;10.57;7.57;;;;;;;22.07;45.73;102204.16;4900399;29;20060;-78
2023/06/05 06:52:31;;;;;;;11.15;6.93;;;;;;;21.79;45.59;102193.44;4900532;29;20059;-80
2023/06/05 06:54:57;;;;;;;11.55;7.25;;;;;;;22.20;45.61;102204.72;4900503;29;20152;-79
2023/06/05 06:57:22;;;;;;;10.18;6.93;;;;;;;22.47;45.54;102201.38;4900355;29;20432;-79
2023/06/05 06:59:47;;;;;;;9.95;6.15;;;;;;;22.57;44.24;102189.00;4900559;29;20524;-78
2023/06/05 07:02:17;;;;;;;9.55;6.75;;;;;;;22.56;43.50;102179.47;4900132;29;20150;-80
2023/06/05 07:04:44;;;;;;;10.52;7.07;;;;;;;22.18;44.21;102185.59;4900163;29;20560;-80
2023/06/05 07:07:13;;;;;;;10.48;7.25;;;;;;;22.49;44.27;102209.94;4900263;29;20044;-78
2023/06/05 07:09:42;;;;;;;9.68;6.65;;;;;;;23.12;42.33;102191.78;4900452;29;20024;-79
2023/06/05 07:12:09;;;;;;;9.48;6.40;;;;;;;23.44;41.18;102193.97;4900226;29;20096;-79
2023/06/05 07:14:34;;;;;;;10.55;6.55;;;;;;;23.43;42.15;102203.69;4900272;29;20036;-79
2023/06/05 07:17:00;;;;;;;10.57;6.53;;;;;;;23.37;42.14;102214.81;4899846;29;20039;-78
2023/06/05 07:19:30;;;;;;;11.82;6.60;;;;;;;22.82;42.29;102203.38;4899985;29;20060;-78
2023/06/05 07:22:01;;;;;;;14.80;7.13;;;;;;;22.84;42.77;102193.56;4899893;29;20041;-79
2023/06/05 07:24:28;;;;;;;12.27;6.78;;;;;;;23.00;42.49;102193.75;4900036;29;20032;-79
2023/06/05 07:26:56;;;;;;;13.20;7.00;;;;;;;23.31;41.38;102198.78;4899687;29;20480;-79
2023/06/05 07:29:23;;;;;;;11.13;6.75;;;;;;;23.26;42.03;102211.56;4899958;29;20092;-78
2023/06/05 07:31:50;;;;;;;11.13;5.93;;;;;;;23.40;41.27;102208.41;4899750;29;20404;-79
2023/06/05 07:34:18;;;;;;;9.40;6.03;;;;;;;22.97;41.54;102157.19;4898573;29;20035;-76
2023/06/05 07:36:45;;;;;;;10.27;6.63;;;;;;;22.88;41.66;102164.13;4899691;29;20040;-76
2023/06/05 07:39:11;;;;;;;9.07;6.00;;;;;;;21.98;43.42;102216.31;4898698;29;20384;-77
2023/06/05 07:41:37;;;;;;;9.82;7.15;;;;;;;20.14;47.74;102201.41;4898465;29;20107;-76
2023/06/05 07:44:02;;;;;;;12.55;7.30;;;;;;;19.05;51.68;102217.03;4900157;29;20506;-76
2023/06/05 07:46:27;;;;;;;10.65;6.82;;;;;;;18.21;55.34;102194.59;4882706;29;20037;-78
2023/06/05 07:48:53;;;;;;;12.82;6.93;;;;;;;18.12;56.48;102218.78;4899241;29;20092;-76
2023/06/05 07:51:18;;;;;;;10.38;7.50;;;;;;;17.71;56.95;102179.00;4899296;29;20068;-78
2023/06/05 07:53:44;;;;;;;15.40;6.97;;;;;;;17.72;57.10;102219.88;4899369;29;20115;-77
2023/06/05 07:56:11;;;;;;;10.30;6.93;;;;;;;17.64;57.61;102222.16;4899125;29;20025;-76
2023/06/05 07:58:37;;;;;;;11.05;8.02;;;;;;;17.40;58.11;102198.59;4899226;29;20033;-77
2023/06/05 08:01:03;;;;;;;11.98;7.22;;;;;;;17.35;59.29;102213.75;4899378;29;20039;-78
2023/06/05 08:03:29;;;;;;;14.38;7.32;;;;;;;17.27;59.71;102223.03;4899396;29;20020;-77
2023/06/05 08:05:54;;;;;;;12.60;7.35;;;;;;;17.04;60.34;102199.38;4899026;29;20084;-76
2023/06/05 08:08:19;;;;;;;10.77;7.18;;;;;;;17.06;60.09;102214.91;4899151;29;20117;-77
2023/06/05 08:10:45;;;;;;;10.43;7.38;;;;;;;16.91;61.15;102199.38;4898967;29;20024;-77
2023/06/05 08:13:10;;;;;;;11.63;7.38;;;;;;;16.94;60.92;102210.53;4897804;29;20043;-77
2023/06/05 08:15:36;;;;;;;11.35;7.22;;;;;;;17.07;62.20;102206.13;4899055;29;20060;-76
2023/06/05 08:18:02;;;;;;;11.52;7.68;;;;;;;16.99;61.76;102177.94;4898838;29;20036;-77
2023/06/05 08:20:28;;;;;;;11.73;7.20;;;;;;;16.92;60.63;102181.94;4898365;29;20032;-75
2023/06/05 08:23:00;;;;;;;12.93;7.10;;;;;;;16.86;61.95;102193.63;4898940;29;20055;-75
2023/06/05 08:25:26;;;;;;;11.95;6.93;;;;;;;16.78;63.29;102185.47;4899605;29;20024;-77
2023/06/05 08:27:52;;;;;;;10.07;7.10;;;;;;;16.92;63.32;102195.00;4898133;29;20023;-76
2023/06/05 08:30:18;;;;;;;11.38;7.30;;;;;;;16.98;62.48;102183.28;4898750;29;20029;-76
2023/06/05 08:32:43;;;;;;;12.48;7.35;;;;;;;16.97;62.32;102166.78;4898765;29;20033;-77
2023/06/05 08:35:10;;;;;;;11.77;6.95;;;;;;;17.26;61.51;102184.81;4897315;29;20045;-76
2023/06/05 08:37:36;;;;;;;11.00;7.28;;;;;;;17.35;61.74;102179.78;4898696;29;20040;-78
2023/06/05 08:40:06;;;;;;;10.30;6.70;;;;;;;17.52;61.23;102190.84;4898707;29;20037;-78
2023/06/05 08:42:31;;;;;;;10.38;6.05;;;;;;;17.44;61.37;102171.31;4898546;29;20025;-78
2023/06/05 08:44:57;;;;;;;9.02;5.95;;;;;;;17.62;62.23;102177.03;4898551;29;20039;-78
2023/06/05 08:47:27;;;;;;;11.80;7.00;;;;;;;17.39;60.00;102143.84;4898612;29;20900;-78
2023/06/05 08:49:54;;;;;;;12.63;6.93;;;;;;;17.74;61.23;102189.22;4897139;29;20035;-78
2023/06/05 08:52:23;;;;;;;9.48;6.00;;;;;;;17.84;61.52;102178.94;4898812;29;20350;-79
2023/06/05 08:54:49;;;;;;;9.88;6.22;;;;;;;17.81;59.74;102186.19;4898386;29;20036;-78
2023/06/05 08:57:15;;;;;;;11.18;6.55;;;;;;;17.78;61.10;102180.22;4896817;29;20685;-75
2023/06/05 08:59:41;;;;;;;10.70;6.55;;;;;;;17.56;61.38;102148.72;4898974;29;20025;-78
2023/06/05 09:02:07;;;;;;;11.55;6.97;;;;;;;17.64;60.73;102156.84;4898489;29;20024;-76
2023/06/05 09:04:33;;;;;;;11.05;6.82;;;;;;;17.70;60.47;102168.69;4898239;29;20104;-77
2023/06/05 09:06:59;;;;;;;12.98;7.03;;;;;;;17.76;61.03;102170.81;4898280;29;20111;-78
2023/06/05 09:09:25;;;;;;;9.38;5.95;;;;;;;17.91;59.81;102188.03;4898024;29;20029;-78
2023/06/05 09:12:13;;;;;;;12.75;6.30;;;;;;;17.92;60.21;102184.47;4898668;29;20037;-79
2023/06/05 09:14:38;;;;;;;11.27;6.13;;;;;;;18.16;61.37;102176.59;4898365;29;20033;-78
2023/06/05 09:17:03;;;;;;;10.63;6.13;;;;;;;18.33;61.22;102164.91;4897895;29;20077;-78
2023/06/05 09:19:37;;;;;;;8.32;5.30;;;;;;;18.26;60.36;102143.59;4897870;29;20128;-78
2023/06/05 09:22:03;;;;;;;10.30;6.10;;;;;;;18.37;58.29;102158.47;4897729;29;20068;-78
2023/06/05 09:24:30;;;;;;;10.55;6.38;;;;;;;18.48;59.27;102163.72;4896057;29;20115;-78
2023/06/05 09:27:05;;;;;;;9.10;5.75;;;;;;;18.43;60.57;102133.66;4898317;29;20031;-76
2023/06/05 09:29:36;;;;;;;10.27;5.85;;;;;;;18.59;60.59;102176.03;4897908;29;20024;-76
2023/06/05 09:32:05;;;;;;;9.90;6.10;;;;;;;18.59;60.42;102166.41;4897708;29;20043;-76
2023/06/05 09:34:37;;;;;;;9.40;5.60;;;;;;;18.57;60.14;102144.72;4897740;29;20040;-79
2023/06/05 09:37:07;;;;;;;10.23;6.20;;;;;;;18.75;58.93;102160.84;4897693;29;20029;-79
2023/06/05 09:39:37;;;;;;;11.23;5.75;;;;;;;18.84;59.85;102149.69;4897447;29;20529;-79
2023/06/05 09:42:03;;;;;;;9.27;5.88;;;;;;;18.93;60.23;102142.91;4897619;29;20035;-77
2023/06/05 09:55:42;;;;;;;12.30;6.70;;;;;;;19.15;59.70;102155.97;4821826;29;20169;-77
2023/06/05 09:58:41;;;;;;;10.85;6.50;;;;;;;19.19;58.91;102153.97;4821272;29;20140;-78
2023/06/05 10:01:47;;;;;;;9.30;5.55;;;;;;;19.40;57.81;102159.31;4821654;29;20116;-77
2023/06/05 10:04:29;;;;;;;10.15;5.90;;;;;;;18.98;57.46;102091.03;4820112;29;20035;-77
2023/06/05 10:07:21;;;;;;;10.13;5.82;;;;;;;18.35;57.84;102016.53;4822348;29;20084;-74
2023/06/05 10:09:49;;;;;;;;;;;;;;;19.24;57.56;102146.56;4797531;29;20047;-77
2023/06/05 10:12:15;;;;;;;9.65;5.43;;;;;;;18.69;57.18;102046.22;4821185;29;20019;-75
2023/06/05 10:14:42;;;;;;;9.05;5.63;;;;;;;19.40;57.98;102156.69;4821449;29;20047;-78
2023/06/05 10:17:15;;;;;;;12.32;6.15;;;;;;;19.07;57.43;102085.06;4821398;29;20541;-76
2023/06/05 10:19:44;;;;;;;10.73;5.88;;;;;;;19.53;58.28;102138.19;4821104;29;20041;-78
2023/06/05 10:22:11;;;;;;;8.25;4.88;;;;;;;19.70;56.50;102137.72;4821518;29;20176;-79
2023/06/05 10:24:42;;;;;;;11.25;4.78;;;;;;;19.82;55.99;102135.88;4821450;29;20344;-79
2023/06/05 10:27:09;;;;;;;7.35;4.07;;;;;;;19.97;56.15;102138.09;4821419;29;20050;-78
2023/06/05 10:29:56;;;;;;;13.02;6.00;;;;;;;20.01;55.56;102136.03;4840235;29;20371;-77
2023/06/05 10:32:36;;;;;;;8.15;4.80;;;;;;;20.12;56.43;102133.34;4841993;29;20552;-77
2023/06/05 10:35:35;;;;;;;11.65;5.53;;;;;;;20.09;55.55;102114.44;4841491;29;20030;-78
2023/06/05 10:38:18;;;;;;;9.15;5.55;;;;;;;20.38;56.59;102133.81;4841508;29;20120;-77
2023/06/05 10:40:55;;;;;;;8.88;5.25;;;;;;;20.23;55.99;102120.19;4841516;29;20101;-76
2023/06/05 10:43:32;;;;;;;12.20;5.45;;;;;;;20.36;55.19;102129.66;4855289;29;20128;-77
2023/06/05 10:46:22;;;;;;;9.48;5.35;;;;;;;20.30;54.66;102120.50;4846587;29;20093;-76
2023/06/05 10:49:17;;;;;;;8.32;5.05;;;;;;;20.42;54.94;102129.13;4859682;29;20446;-78
2023/06/05 10:51:53;;;;;;;10.07;5.15;;;;;;;20.47;55.24;102137.50;4861219;29;20033;-78
2023/06/05 10:54:24;;;;;;;8.13;4.57;;;;;;;20.62;56.92;102128.31;4863087;29;20021;-74
2023/06/05 10:57:01;;;;;;;;;;;;;;;20.63;55.03;102122.94;4863502;29;20029;-76
2023/06/05 10:59:34;;;;;;;8.05;5.05;;;;;;;20.65;53.68;102121.97;4862828;29;20010;-82
2023/06/05 11:02:08;;;;;;;8.50;4.82;;;;;;;20.54;54.00;102121.09;4861769;29;20132;-79
2023/06/05 11:04:46;;;;;;;9.60;5.30;;;;;;;20.54;53.97;102117.63;4862973;29;20040;-81
2023/06/05 11:07:18;;;;;;;7.72;4.80;;;;;;;20.54;52.76;102112.38;4863111;29;20033;-79
2023/06/05 11:10:05;;;;;;;7.80;4.70;;;;;;;20.76;53.63;102116.66;4863057;29;20070;-79
2023/06/05 11:12:39;;;;;;;9.80;5.57;;;;;;;20.81;52.06;102112.66;4862783;29;20086;-77
2023/06/05 11:15:09;;;;;;;11.27;4.80;;;;;;;20.83;53.04;102107.28;4862862;29;20375;-79
2023/06/05 11:17:40;;;;;;;8.98;4.93;;;;;;;20.84;54.08;102101.06;4862712;29;20193;-83
2023/06/05 11:20:28;;;;;;;13.80;4.93;;;;;;;20.87;54.01;102103.44;4862747;29;20537;-82
2023/06/05 11:22:53;;;;;;;10.45;4.57;;;;;;;20.91;53.29;102099.56;4861734;29;20036;-81
2023/06/05 11:25:27;;;;;;;7.75;4.60;;;;;;;20.87;52.87;102101.63;4862382;29;20474;-77
2023/06/05 11:28:07;;;;;;;9.00;5.28;;;;;;;20.82;53.29;102092.47;4862754;29;20037;-80
2023/06/05 11:30:38;;;;;;;9.82;4.65;;;;;;;20.91;52.72;102094.31;4862455;29;20036;-81
2023/06/05 11:33:14;;;;;;;9.00;5.03;;;;;;;20.96;52.91;102099.19;4862520;29;20049;-77
2023/06/05 11:35:42;;;;;;;9.27;4.80;;;;;;;20.92;50.66;102102.06;4862624;29;20489;-76
2023/06/05 11:38:19;;;;;;;7.70;4.55;;;;;;;20.54;51.46;102054.66;4862372;29;20038;-81
2023/06/05 11:40:45;;;;;;;9.65;5.20;;;;;;;20.83;52.99;102091.50;4861225;29;20522;-78
2023/06/05 11:43:16;;;;;;;9.20;4.90;;;;;;;21.04;52.79;102088.81;4862096;29;20031;-80
2023/06/05 11:45:52;;;;;;;9.10;5.40;;;;;;;20.90;50.50;102059.34;4862046;29;20039;-82
2023/06/05 11:48:18;;;;;;;9.40;4.97;;;;;;;20.48;50.42;101981.72;4882402;24;20079;-80
2023/06/05 11:51:01;;;;;;;7.80;4.60;;;;;;;20.75;52.12;102010.81;4880682;29;20466;-81